CCA1470 ZPLJ-ZBAA
Flight info
| Callsign | CCA1470 |
|---|---|
| Flight time | 3h 11m |
| Altitude | 35100 |
| Route | K0865S1070 DCT CEH W162 KAKMI/K0863S1100 W144 IGNAK/K0865S1070 W179 WFX DCT NSH/K0848S1130 G212 WJC W193 ALGOV W101 DUDIL W69 GUVBA GUVBA7X |
| Aircraft | A319/M-SDE3FGHIRWY/LB1 |
Departure
| Time | 2026-05-07 10:21 |
|---|---|
| Airport | Lijiang Sanyi International Airport (ZPLJ) |
Arrival
| Time | 2026-05-07 13:33 |
|---|---|
| Airport | Beijing Capital International Airport (ZBAA) |
| Time | Latitude | Longitude | Altitude | Speed | Heading |
|---|---|---|---|---|---|
| 2026-05-07 09:50 | 26.66965 | 100.24573 | 7219 ft | 0 kts | 196° |
| 2026-05-07 10:11 | 26.66982 | 100.24579 | 7234 ft | 4 kts | 201° |
| 2026-05-07 10:11 | 26.67005 | 100.24593 | 7233 ft | 4 kts | 230° |
| 2026-05-07 10:11 | 26.67012 | 100.24613 | 7230 ft | 0 kts | 287° |
| 2026-05-07 10:15 | 26.67014 | 100.24606 | 7231 ft | 3 kts | 287° |
| 2026-05-07 10:16 | 26.67027 | 100.24559 | 7248 ft | 9 kts | 287° |
| 2026-05-07 10:16 | 26.67048 | 100.24480 | 7246 ft | 12 kts | 287° |
| 2026-05-07 10:16 | 26.66997 | 100.24419 | 7245 ft | 13 kts | 198° |
| 2026-05-07 10:16 | 26.66897 | 100.24385 | 7252 ft | 17 kts | 197° |
| 2026-05-07 10:17 | 26.66776 | 100.24343 | 7250 ft | 20 kts | 197° |
| 2026-05-07 10:17 | 26.66636 | 100.24296 | 7253 ft | 22 kts | 197° |
| 2026-05-07 10:17 | 26.66478 | 100.24242 | 7249 ft | 25 kts | 197° |
| 2026-05-07 10:17 | 26.66380 | 100.24186 | 7249 ft | 12 kts | 264° |
| 2026-05-07 10:18 | 26.66396 | 100.24123 | 7249 ft | 9 kts | 285° |
| 2026-05-07 10:18 | 26.66429 | 100.24052 | 7250 ft | 11 kts | 338° |
| 2026-05-07 10:18 | 26.66475 | 100.24058 | 7250 ft | 1 kts | 16° |
| 2026-05-07 10:18 | 26.66476 | 100.24058 | 7250 ft | 0 kts | 16° |
| 2026-05-07 10:20 | 26.66484 | 100.24061 | 7252 ft | 5 kts | 16° |
| 2026-05-07 10:20 | 26.66646 | 100.24117 | 7255 ft | 58 kts | 17° |
| 2026-05-07 10:20 | 26.67274 | 100.24329 | 7258 ft | 127 kts | 17° |
| 2026-05-07 10:21 | 26.68295 | 100.24672 | 7277 ft | 175 kts | 15° |
| 2026-05-07 10:21 | 26.69452 | 100.25060 | 7809 ft | 171 kts | 15° |
| 2026-05-07 10:21 | 26.70594 | 100.25430 | 8321 ft | 173 kts | 12° |
| 2026-05-07 10:21 | 26.71776 | 100.25737 | 8694 ft | 176 kts | 12° |
| 2026-05-07 10:22 | 26.72987 | 100.26049 | 8870 ft | 181 kts | 12° |
| 2026-05-07 10:22 | 26.74233 | 100.26370 | 9031 ft | 187 kts | 12° |
| 2026-05-07 10:22 | 26.75525 | 100.26703 | 9156 ft | 195 kts | 12° |
| 2026-05-07 10:22 | 26.76863 | 100.27056 | 9350 ft | 200 kts | 12° |
| 2026-05-07 10:23 | 26.78216 | 100.27432 | 9656 ft | 202 kts | 11° |
| 2026-05-07 10:23 | 26.79550 | 100.27809 | 10113 ft | 194 kts | 11° |
| 2026-05-07 10:23 | 26.80829 | 100.28172 | 10564 ft | 186 kts | 10° |
| 2026-05-07 10:23 | 26.82082 | 100.28523 | 10908 ft | 187 kts | 9° |
| 2026-05-07 10:24 | 26.83389 | 100.28885 | 11044 ft | 200 kts | 10° |
| 2026-05-07 10:24 | 26.84800 | 100.29273 | 11152 ft | 218 kts | 11° |
| 2026-05-07 10:24 | 26.86355 | 100.29702 | 11362 ft | 244 kts | 11° |
| 2026-05-07 10:24 | 26.88068 | 100.30176 | 11786 ft | 264 kts | 11° |
| 2026-05-07 10:25 | 26.89848 | 100.30989 | 12119 ft | 293 kts | 36° |
| 2026-05-07 10:25 | 26.91155 | 100.32834 | 12485 ft | 318 kts | 68° |
| 2026-05-07 10:25 | 26.91505 | 100.35348 | 12867 ft | 340 kts | 98° |
| 2026-05-07 10:25 | 26.90784 | 100.37933 | 13204 ft | 360 kts | 120° |
| 2026-05-07 10:26 | 26.89508 | 100.40442 | 13480 ft | 382 kts | 123° |
| 2026-05-07 10:26 | 26.88113 | 100.43081 | 13653 ft | 405 kts | 123° |
| 2026-05-07 10:26 | 26.86649 | 100.45851 | 14049 ft | 419 kts | 121° |
| 2026-05-07 10:26 | 26.85379 | 100.48821 | 14654 ft | 427 kts | 114° |
| 2026-05-07 10:27 | 26.84372 | 100.51977 | 15194 ft | 434 kts | 104° |
| 2026-05-07 10:27 | 26.84037 | 100.55353 | 15706 ft | 440 kts | 91° |
| 2026-05-07 10:27 | 26.84227 | 100.58789 | 16160 ft | 445 kts | 84° |
| 2026-05-07 10:27 | 26.84495 | 100.62257 | 16631 ft | 449 kts | 86° |
| 2026-05-07 10:28 | 26.84675 | 100.65761 | 17061 ft | 453 kts | 87° |
| 2026-05-07 10:28 | 26.84803 | 100.69300 | 17514 ft | 457 kts | 88° |
| 2026-05-07 10:28 | 26.84917 | 100.72869 | 17903 ft | 460 kts | 88° |
| 2026-05-07 10:28 | 26.84998 | 100.75247 | 18163 ft | 462 kts | 87° |
| 2026-05-07 10:29 | 26.85136 | 100.78856 | 18491 ft | 466 kts | 87° |
| 2026-05-07 10:29 | 26.85294 | 100.82486 | 18802 ft | 468 kts | 87° |
| 2026-05-07 10:29 | 26.85466 | 100.86139 | 19139 ft | 471 kts | 86° |
| 2026-05-07 10:30 | 26.86042 | 100.93476 | 19747 ft | 476 kts | 78° |
| 2026-05-07 10:30 | 26.86948 | 100.97038 | 20048 ft | 477 kts | 68° |
| 2026-05-07 10:30 | 26.88343 | 101.00416 | 20348 ft | 478 kts | 58° |
| 2026-05-07 10:30 | 26.90195 | 101.03504 | 20624 ft | 478 kts | 49° |
| 2026-05-07 10:31 | 26.92321 | 101.06371 | 20907 ft | 480 kts | 47° |
| 2026-05-07 10:31 | 26.94465 | 101.09250 | 21165 ft | 482 kts | 47° |
| 2026-05-07 10:31 | 26.96615 | 101.12144 | 21446 ft | 485 kts | 47° |
| 2026-05-07 10:31 | 26.98775 | 101.15061 | 21730 ft | 487 kts | 48° |
| 2026-05-07 10:32 | 27.00940 | 101.17990 | 21988 ft | 489 kts | 48° |
| 2026-05-07 10:32 | 27.03117 | 101.20939 | 22204 ft | 492 kts | 48° |
| 2026-05-07 10:32 | 27.05303 | 101.23909 | 22449 ft | 495 kts | 48° |
| 2026-05-07 10:32 | 27.07496 | 101.26891 | 22684 ft | 497 kts | 48° |
| 2026-05-07 10:33 | 27.09706 | 101.29892 | 22901 ft | 499 kts | 48° |
| 2026-05-07 10:33 | 27.11927 | 101.32903 | 23146 ft | 502 kts | 47° |
| 2026-05-07 10:33 | 27.14159 | 101.35925 | 23356 ft | 504 kts | 47° |
| 2026-05-07 10:33 | 27.16367 | 101.38919 | 23561 ft | 507 kts | 47° |
| 2026-05-07 10:34 | 27.18621 | 101.41980 | 23784 ft | 509 kts | 47° |
| 2026-05-07 10:34 | 27.20877 | 101.45056 | 23946 ft | 511 kts | 48° |
| 2026-05-07 10:34 | 27.23173 | 101.48185 | 24153 ft | 512 kts | 47° |
| 2026-05-07 10:34 | 27.25458 | 101.51263 | 24335 ft | 513 kts | 47° |
| 2026-05-07 10:35 | 27.27726 | 101.54288 | 24504 ft | 514 kts | 47° |
| 2026-05-07 10:35 | 27.30043 | 101.57362 | 24628 ft | 516 kts | 46° |
| 2026-05-07 10:35 | 27.32371 | 101.60448 | 24811 ft | 518 kts | 46° |
| 2026-05-07 10:35 | 27.34698 | 101.63540 | 24990 ft | 518 kts | 47° |
| 2026-05-07 10:36 | 27.37020 | 101.66640 | 25162 ft | 519 kts | 47° |
| 2026-05-07 10:36 | 27.39344 | 101.69756 | 25331 ft | 521 kts | 47° |
| 2026-05-07 10:36 | 27.41672 | 101.72881 | 25508 ft | 522 kts | 47° |
| 2026-05-07 10:36 | 27.44008 | 101.76016 | 25705 ft | 523 kts | 47° |
| 2026-05-07 10:37 | 27.46348 | 101.79162 | 25888 ft | 524 kts | 47° |
| 2026-05-07 10:37 | 27.48679 | 101.82299 | 26170 ft | 522 kts | 47° |
| 2026-05-07 10:37 | 27.51007 | 101.85438 | 26426 ft | 521 kts | 47° |
| 2026-05-07 10:37 | 27.53327 | 101.88570 | 26664 ft | 521 kts | 47° |
| 2026-05-07 10:38 | 27.55647 | 101.91701 | 26956 ft | 520 kts | 47° |
| 2026-05-07 10:38 | 27.57964 | 101.94825 | 27245 ft | 519 kts | 47° |
| 2026-05-07 10:38 | 27.60285 | 101.97950 | 27564 ft | 519 kts | 47° |
| 2026-05-07 10:38 | 27.62596 | 102.01065 | 27878 ft | 518 kts | 47° |
| 2026-05-07 10:39 | 27.64900 | 102.04178 | 28205 ft | 517 kts | 47° |
| 2026-05-07 10:39 | 27.67202 | 102.07291 | 28521 ft | 516 kts | 47° |
| 2026-05-07 10:39 | 27.69503 | 102.10404 | 28832 ft | 516 kts | 47° |
| 2026-05-07 10:39 | 27.71798 | 102.13507 | 29185 ft | 515 kts | 47° |
| 2026-05-07 10:40 | 27.73961 | 102.16730 | 29514 ft | 517 kts | 54° |
| 2026-05-07 10:40 | 27.75730 | 102.20274 | 29820 ft | 519 kts | 61° |
| 2026-05-07 10:40 | 27.77366 | 102.23902 | 30140 ft | 519 kts | 61° |
| 2026-05-07 10:40 | 27.79009 | 102.27532 | 30424 ft | 519 kts | 60° |
| 2026-05-07 10:41 | 27.80653 | 102.31157 | 30689 ft | 519 kts | 60° |
| 2026-05-07 10:41 | 27.82299 | 102.34782 | 30931 ft | 519 kts | 60° |
| 2026-05-07 10:41 | 27.83946 | 102.38414 | 31214 ft | 519 kts | 60° |
| 2026-05-07 10:41 | 27.85592 | 102.42045 | 31477 ft | 520 kts | 60° |
| 2026-05-07 10:42 | 27.87241 | 102.45690 | 31760 ft | 520 kts | 60° |
| 2026-05-07 10:42 | 27.88885 | 102.49333 | 32028 ft | 521 kts | 60° |
| 2026-05-07 10:42 | 27.90528 | 102.52978 | 32294 ft | 521 kts | 60° |
| 2026-05-07 10:42 | 27.92172 | 102.56630 | 32548 ft | 521 kts | 60° |
| 2026-05-07 10:43 | 27.93816 | 102.60282 | 32810 ft | 521 kts | 60° |
| 2026-05-07 10:43 | 27.95460 | 102.63934 | 33072 ft | 522 kts | 60° |
| 2026-05-07 10:43 | 27.97105 | 102.67593 | 33350 ft | 522 kts | 60° |
| 2026-05-07 10:43 | 27.98751 | 102.71258 | 33582 ft | 522 kts | 60° |
| 2026-05-07 10:44 | 28.00394 | 102.74921 | 33849 ft | 523 kts | 60° |
| 2026-05-07 10:44 | 28.02037 | 102.78586 | 34138 ft | 523 kts | 60° |
| 2026-05-07 10:44 | 28.03683 | 102.82263 | 34350 ft | 523 kts | 60° |
| 2026-05-07 10:44 | 28.05325 | 102.85936 | 34554 ft | 523 kts | 60° |
| 2026-05-07 10:45 | 28.06964 | 102.89611 | 34799 ft | 523 kts | 60° |
| 2026-05-07 10:45 | 28.08603 | 102.93281 | 35031 ft | 523 kts | 60° |
| 2026-05-07 10:45 | 28.10247 | 102.96956 | 35208 ft | 523 kts | 60° |
| 2026-05-07 10:45 | 28.11898 | 103.00645 | 35253 ft | 526 kts | 60° |
| 2026-05-07 10:46 | 28.15201 | 103.08049 | 35251 ft | 528 kts | 60° |
| 2026-05-07 10:46 | 28.18498 | 103.15483 | 35254 ft | 528 kts | 60° |
| 2026-05-07 10:47 | 28.21789 | 103.22909 | 35252 ft | 527 kts | 60° |
| 2026-05-07 10:47 | 28.25068 | 103.30331 | 35252 ft | 526 kts | 60° |
| 2026-05-07 10:48 | 28.28356 | 103.37760 | 35247 ft | 527 kts | 59° |
| 2026-05-07 10:48 | 28.31646 | 103.45201 | 35246 ft | 527 kts | 60° |
| 2026-05-07 10:49 | 28.34927 | 103.52647 | 35243 ft | 527 kts | 60° |
| 2026-05-07 10:49 | 28.38206 | 103.60097 | 35239 ft | 528 kts | 60° |
| 2026-05-07 10:50 | 28.41471 | 103.67546 | 35226 ft | 526 kts | 60° |
| 2026-05-07 10:50 | 28.44736 | 103.74984 | 35217 ft | 526 kts | 60° |
| 2026-05-07 10:51 | 28.48000 | 103.82415 | 35206 ft | 525 kts | 60° |
| 2026-05-07 10:51 | 28.51249 | 103.89853 | 35198 ft | 525 kts | 60° |
| 2026-05-07 10:52 | 28.54482 | 103.97281 | 35185 ft | 524 kts | 60° |
| 2026-05-07 10:52 | 28.57718 | 104.04707 | 35181 ft | 524 kts | 60° |
| 2026-05-07 10:53 | 28.60952 | 104.12135 | 35175 ft | 524 kts | 60° |
| 2026-05-07 10:53 | 28.64350 | 104.19439 | 35168 ft | 518 kts | 51° |
| 2026-05-07 10:54 | 28.66643 | 104.22556 | 35160 ft | 510 kts | 39° |
| 2026-05-07 10:54 | 28.69357 | 104.25100 | 35161 ft | 501 kts | 27° |
| 2026-05-07 10:54 | 28.72372 | 104.26984 | 35156 ft | 490 kts | 16° |
| 2026-05-07 10:54 | 28.75569 | 104.28185 | 35147 ft | 479 kts | 5° |
| 2026-05-07 10:55 | 28.82058 | 104.28658 | 35139 ft | 463 kts | 350° |
| 2026-05-07 10:55 | 28.88495 | 104.28300 | 35132 ft | 463 kts | 350° |
| 2026-05-07 10:56 | 28.94945 | 104.27951 | 35131 ft | 464 kts | 350° |
| 2026-05-07 10:56 | 29.01397 | 104.27602 | 35134 ft | 465 kts | 350° |
| 2026-05-07 10:57 | 29.07854 | 104.27252 | 35134 ft | 465 kts | 350° |
| 2026-05-07 10:57 | 29.14272 | 104.26897 | 35140 ft | 465 kts | 350° |
| 2026-05-07 10:58 | 29.20729 | 104.26541 | 35141 ft | 465 kts | 350° |
| 2026-05-07 10:58 | 29.27209 | 104.26296 | 35144 ft | 470 kts | 356° |
| 2026-05-07 10:59 | 29.33758 | 104.27295 | 35148 ft | 476 kts | 1° |
| 2026-05-07 10:59 | 29.40315 | 104.28415 | 35154 ft | 476 kts | 1° |
| 2026-05-07 11:00 | 29.46872 | 104.29531 | 35158 ft | 476 kts | 1° |
| 2026-05-07 11:00 | 29.53429 | 104.30638 | 35160 ft | 476 kts | 1° |
| 2026-05-07 11:01 | 29.59993 | 104.31747 | 35164 ft | 477 kts | 1° |
| 2026-05-07 11:01 | 29.66550 | 104.32859 | 35169 ft | 477 kts | 1° |
| 2026-05-07 11:02 | 29.73114 | 104.33986 | 35173 ft | 477 kts | 2° |
| 2026-05-07 11:02 | 29.79668 | 104.35109 | 35174 ft | 476 kts | 2° |
| 2026-05-07 11:03 | 29.86228 | 104.36224 | 35180 ft | 476 kts | 1° |
| 2026-05-07 11:03 | 29.92775 | 104.37346 | 35179 ft | 476 kts | 2° |
| 2026-05-07 11:04 | 29.99325 | 104.38478 | 35179 ft | 476 kts | 2° |
| 2026-05-07 11:04 | 30.05874 | 104.39601 | 35185 ft | 476 kts | 2° |
| 2026-05-07 11:05 | 30.12426 | 104.40717 | 35183 ft | 476 kts | 2° |
| 2026-05-07 11:05 | 30.18971 | 104.41845 | 35175 ft | 476 kts | 2° |
| 2026-05-07 11:06 | 30.25523 | 104.42996 | 35172 ft | 476 kts | 2° |
| 2026-05-07 11:06 | 30.32076 | 104.44151 | 35174 ft | 476 kts | 2° |
| 2026-05-07 11:07 | 30.38629 | 104.45296 | 35175 ft | 476 kts | 2° |
| 2026-05-07 11:07 | 30.45180 | 104.46442 | 35178 ft | 476 kts | 2° |
| 2026-05-07 11:08 | 30.51740 | 104.47591 | 35186 ft | 477 kts | 2° |
| 2026-05-07 11:08 | 30.58179 | 104.49420 | 35182 ft | 489 kts | 18° |
| 2026-05-07 11:09 | 30.61201 | 104.51281 | 35185 ft | 497 kts | 29° |
| 2026-05-07 11:09 | 30.63940 | 104.53763 | 35180 ft | 503 kts | 39° |
| 2026-05-07 11:09 | 30.68630 | 104.59850 | 35175 ft | 507 kts | 46° |
| 2026-05-07 11:10 | 30.73242 | 104.66051 | 35182 ft | 507 kts | 46° |
| 2026-05-07 11:10 | 30.77851 | 104.72258 | 35177 ft | 507 kts | 46° |
| 2026-05-07 11:11 | 30.82456 | 104.78475 | 35188 ft | 507 kts | 46° |
| 2026-05-07 11:11 | 30.87060 | 104.84700 | 35182 ft | 507 kts | 46° |
| 2026-05-07 11:12 | 30.91651 | 104.90924 | 35193 ft | 507 kts | 46° |
| 2026-05-07 11:12 | 30.96249 | 104.97153 | 35188 ft | 507 kts | 46° |
| 2026-05-07 11:13 | 31.00841 | 105.03375 | 35185 ft | 506 kts | 46° |
| 2026-05-07 11:13 | 31.05423 | 105.09606 | 35188 ft | 506 kts | 46° |
| 2026-05-07 11:14 | 31.09224 | 105.14792 | 35189 ft | 506 kts | 46° |
| 2026-05-07 11:14 | 31.13792 | 105.21029 | 35188 ft | 506 kts | 46° |
| 2026-05-07 11:15 | 31.18358 | 105.27275 | 35185 ft | 506 kts | 46° |
| 2026-05-07 11:15 | 31.22924 | 105.33526 | 35181 ft | 506 kts | 46° |
| 2026-05-07 11:16 | 31.27491 | 105.39780 | 35182 ft | 506 kts | 46° |
| 2026-05-07 11:16 | 31.32056 | 105.46045 | 35182 ft | 506 kts | 46° |
| 2026-05-07 11:17 | 31.36611 | 105.52327 | 35183 ft | 506 kts | 46° |
| 2026-05-07 11:17 | 31.41167 | 105.58611 | 35182 ft | 506 kts | 46° |
| 2026-05-07 11:18 | 31.45728 | 105.64887 | 35182 ft | 506 kts | 46° |
| 2026-05-07 11:18 | 31.50284 | 105.71175 | 35190 ft | 506 kts | 46° |
| 2026-05-07 11:19 | 31.54829 | 105.77469 | 35180 ft | 506 kts | 46° |
| 2026-05-07 11:19 | 31.59369 | 105.83771 | 35180 ft | 506 kts | 46° |
| 2026-05-07 11:20 | 31.63901 | 105.90080 | 35183 ft | 506 kts | 46° |
| 2026-05-07 11:20 | 31.68438 | 105.96396 | 35182 ft | 506 kts | 46° |
| 2026-05-07 11:21 | 31.72978 | 106.02714 | 35184 ft | 506 kts | 46° |
| 2026-05-07 11:21 | 31.77516 | 106.09037 | 35184 ft | 506 kts | 46° |
| 2026-05-07 11:22 | 31.82040 | 106.15371 | 35191 ft | 506 kts | 46° |
| 2026-05-07 11:22 | 31.86566 | 106.21712 | 35190 ft | 506 kts | 46° |
| 2026-05-07 11:23 | 31.91091 | 106.28066 | 35192 ft | 507 kts | 46° |
| 2026-05-07 11:23 | 31.95612 | 106.34422 | 35194 ft | 506 kts | 46° |
| 2026-05-07 11:24 | 32.00134 | 106.40787 | 35191 ft | 506 kts | 46° |
| 2026-05-07 11:24 | 32.04650 | 106.47163 | 35199 ft | 507 kts | 46° |
| 2026-05-07 11:25 | 32.09166 | 106.53546 | 35206 ft | 507 kts | 46° |
| 2026-05-07 11:25 | 32.13679 | 106.59927 | 35210 ft | 507 kts | 46° |
| 2026-05-07 11:26 | 32.18190 | 106.66317 | 35215 ft | 507 kts | 46° |
| 2026-05-07 11:26 | 32.22693 | 106.72716 | 35226 ft | 507 kts | 46° |
| 2026-05-07 11:27 | 32.27157 | 106.79074 | 35236 ft | 506 kts | 46° |
| 2026-05-07 11:27 | 32.31645 | 106.85467 | 35244 ft | 506 kts | 46° |
| 2026-05-07 11:28 | 32.36133 | 106.91870 | 35247 ft | 505 kts | 46° |
| 2026-05-07 11:28 | 32.40608 | 106.98258 | 35254 ft | 505 kts | 46° |
| 2026-05-07 11:29 | 32.45086 | 107.04666 | 35259 ft | 504 kts | 47° |
| 2026-05-07 11:29 | 32.49539 | 107.11066 | 35264 ft | 504 kts | 47° |
| 2026-05-07 11:30 | 32.54004 | 107.17486 | 35236 ft | 506 kts | 46° |
| 2026-05-07 11:30 | 32.58492 | 107.23938 | 35229 ft | 508 kts | 46° |
| 2026-05-07 11:31 | 32.62991 | 107.30425 | 35224 ft | 510 kts | 46° |
| 2026-05-07 11:31 | 32.67471 | 107.36906 | 35228 ft | 512 kts | 47° |
| 2026-05-07 11:32 | 32.74262 | 107.46746 | 35217 ft | 515 kts | 47° |
| 2026-05-07 11:33 | 32.78808 | 107.53338 | 35227 ft | 516 kts | 47° |
| 2026-05-07 11:33 | 32.83353 | 107.59939 | 35236 ft | 517 kts | 47° |
| 2026-05-07 11:34 | 32.87913 | 107.66579 | 35230 ft | 518 kts | 47° |
| 2026-05-07 11:34 | 32.92466 | 107.73230 | 35223 ft | 519 kts | 47° |
| 2026-05-07 11:35 | 32.97030 | 107.79898 | 35237 ft | 520 kts | 47° |
| 2026-05-07 11:35 | 33.01606 | 107.86579 | 35225 ft | 521 kts | 47° |
| 2026-05-07 11:36 | 33.06174 | 107.93278 | 35238 ft | 522 kts | 47° |
| 2026-05-07 11:36 | 33.10745 | 107.99999 | 35239 ft | 522 kts | 47° |
| 2026-05-07 11:37 | 33.15321 | 108.06740 | 35245 ft | 523 kts | 47° |
| 2026-05-07 11:37 | 33.19900 | 108.13495 | 35245 ft | 523 kts | 47° |
| 2026-05-07 11:38 | 33.24476 | 108.20260 | 35262 ft | 524 kts | 47° |
| 2026-05-07 11:38 | 33.29073 | 108.27008 | 35265 ft | 522 kts | 43° |
| 2026-05-07 11:39 | 33.34514 | 108.32577 | 35274 ft | 510 kts | 25° |
| 2026-05-07 11:39 | 33.40748 | 108.36428 | 35282 ft | 504 kts | 19° |
| 2026-05-07 11:40 | 33.47037 | 108.40150 | 35292 ft | 504 kts | 19° |
| 2026-05-07 11:40 | 33.53319 | 108.43912 | 35308 ft | 505 kts | 19° |
| 2026-05-07 11:41 | 33.59613 | 108.47678 | 35315 ft | 505 kts | 19° |
| 2026-05-07 11:41 | 33.65904 | 108.51439 | 35328 ft | 505 kts | 19° |
| 2026-05-07 11:42 | 33.72198 | 108.55200 | 35329 ft | 505 kts | 19° |
| 2026-05-07 11:42 | 33.78484 | 108.58964 | 35328 ft | 505 kts | 19° |
| 2026-05-07 11:43 | 33.84780 | 108.62740 | 35331 ft | 505 kts | 19° |
| 2026-05-07 11:43 | 33.91055 | 108.66513 | 35329 ft | 504 kts | 19° |
| 2026-05-07 11:44 | 33.97318 | 108.70288 | 35325 ft | 504 kts | 19° |
| 2026-05-07 11:44 | 34.03580 | 108.74067 | 35326 ft | 503 kts | 19° |
| 2026-05-07 11:45 | 34.09837 | 108.77849 | 35319 ft | 502 kts | 19° |
| 2026-05-07 11:45 | 34.16077 | 108.81633 | 35307 ft | 502 kts | 19° |
| 2026-05-07 11:46 | 34.22406 | 108.85006 | 35301 ft | 488 kts | 7° |
| 2026-05-07 11:46 | 34.25677 | 108.85908 | 35297 ft | 477 kts | 359° |
| 2026-05-07 11:46 | 34.28956 | 108.86440 | 35296 ft | 475 kts | 358° |
| 2026-05-07 11:47 | 34.35506 | 108.87492 | 35290 ft | 475 kts | 359° |
| 2026-05-07 11:47 | 34.42049 | 108.88558 | 35291 ft | 474 kts | 359° |
| 2026-05-07 11:48 | 34.48544 | 108.89629 | 35292 ft | 474 kts | 359° |
| 2026-05-07 11:48 | 34.55078 | 108.90708 | 35295 ft | 474 kts | 359° |
| 2026-05-07 11:49 | 34.61592 | 108.92115 | 35294 ft | 483 kts | 8° |
| 2026-05-07 11:49 | 34.68040 | 108.94447 | 35302 ft | 483 kts | 8° |
| 2026-05-07 11:50 | 34.74482 | 108.96770 | 35302 ft | 483 kts | 8° |
| 2026-05-07 11:50 | 34.80911 | 108.99086 | 35305 ft | 482 kts | 8° |
| 2026-05-07 11:51 | 34.87324 | 109.01491 | 35311 ft | 483 kts | 10° |
| 2026-05-07 11:51 | 34.93713 | 109.04052 | 35311 ft | 483 kts | 11° |
| 2026-05-07 11:52 | 35.00095 | 109.06633 | 35311 ft | 483 kts | 10° |
| 2026-05-07 11:52 | 35.06479 | 109.09167 | 35309 ft | 482 kts | 10° |
| 2026-05-07 11:53 | 35.12870 | 109.11676 | 35315 ft | 482 kts | 10° |
| 2026-05-07 11:53 | 35.19249 | 109.14193 | 35307 ft | 482 kts | 10° |
| 2026-05-07 11:54 | 35.25624 | 109.16734 | 35309 ft | 482 kts | 10° |
| 2026-05-07 11:54 | 35.31993 | 109.19278 | 35309 ft | 482 kts | 10° |
| 2026-05-07 11:55 | 35.38366 | 109.21823 | 35306 ft | 481 kts | 9° |
| 2026-05-07 11:55 | 35.44689 | 109.24347 | 35308 ft | 481 kts | 9° |
| 2026-05-07 11:56 | 35.51054 | 109.26889 | 35308 ft | 481 kts | 9° |
| 2026-05-07 11:56 | 35.57417 | 109.29435 | 35300 ft | 481 kts | 9° |
| 2026-05-07 11:57 | 35.63780 | 109.31989 | 35306 ft | 481 kts | 9° |
| 2026-05-07 11:57 | 35.70136 | 109.34553 | 35296 ft | 481 kts | 10° |
| 2026-05-07 11:58 | 35.76494 | 109.37108 | 35302 ft | 479 kts | 8° |
| 2026-05-07 11:58 | 35.79706 | 109.37982 | 35303 ft | 468 kts | 359° |
| 2026-05-07 11:58 | 35.82932 | 109.38525 | 35306 ft | 467 kts | 359° |
| 2026-05-07 11:59 | 35.89377 | 109.39590 | 35309 ft | 467 kts | 359° |
| 2026-05-07 11:59 | 35.95813 | 109.40656 | 35310 ft | 467 kts | 359° |
| 2026-05-07 12:00 | 36.02244 | 109.41740 | 35313 ft | 466 kts | 359° |
| 2026-05-07 12:00 | 36.08677 | 109.42830 | 35312 ft | 466 kts | 359° |
| 2026-05-07 12:01 | 36.14011 | 109.43740 | 35317 ft | 465 kts | 359° |
| 2026-05-07 12:01 | 36.20424 | 109.44823 | 35317 ft | 465 kts | 359° |
| 2026-05-07 12:02 | 36.26826 | 109.45903 | 35318 ft | 464 kts | 359° |
| 2026-05-07 12:02 | 36.33223 | 109.46995 | 35315 ft | 463 kts | 359° |
| 2026-05-07 12:03 | 36.39607 | 109.48077 | 35312 ft | 463 kts | 359° |
| 2026-05-07 12:03 | 36.45960 | 109.48641 | 35306 ft | 455 kts | 353° |
| 2026-05-07 12:04 | 36.52289 | 109.48899 | 35303 ft | 455 kts | 353° |
| 2026-05-07 12:04 | 36.58619 | 109.49168 | 35300 ft | 455 kts | 353° |
| 2026-05-07 12:05 | 36.64956 | 109.49471 | 35302 ft | 455 kts | 353° |
| 2026-05-07 12:05 | 36.71286 | 109.49778 | 35296 ft | 456 kts | 353° |
| 2026-05-07 12:06 | 36.77626 | 109.50079 | 35290 ft | 456 kts | 353° |
| 2026-05-07 12:06 | 36.83965 | 109.50375 | 35291 ft | 456 kts | 353° |
| 2026-05-07 12:07 | 36.90300 | 109.50676 | 35287 ft | 456 kts | 353° |
| 2026-05-07 12:07 | 36.96640 | 109.50976 | 35283 ft | 456 kts | 353° |
| 2026-05-07 12:08 | 37.02978 | 109.51279 | 35283 ft | 456 kts | 353° |
| 2026-05-07 12:08 | 37.09318 | 109.51600 | 35286 ft | 456 kts | 353° |
| 2026-05-07 12:09 | 37.15663 | 109.51906 | 35291 ft | 456 kts | 353° |
| 2026-05-07 12:09 | 37.21994 | 109.52197 | 35295 ft | 455 kts | 353° |
| 2026-05-07 12:10 | 37.28324 | 109.52509 | 35292 ft | 455 kts | 353° |
| 2026-05-07 12:10 | 37.34647 | 109.52816 | 35288 ft | 455 kts | 352° |
| 2026-05-07 12:11 | 37.40968 | 109.53108 | 35291 ft | 454 kts | 352° |
| 2026-05-07 12:11 | 37.47283 | 109.53391 | 35289 ft | 454 kts | 352° |
| 2026-05-07 12:12 | 37.53594 | 109.53695 | 35292 ft | 454 kts | 352° |
| 2026-05-07 12:12 | 37.59895 | 109.54006 | 35290 ft | 453 kts | 352° |
| 2026-05-07 12:13 | 37.66182 | 109.54316 | 35290 ft | 452 kts | 352° |
| 2026-05-07 12:13 | 37.72455 | 109.54619 | 35294 ft | 450 kts | 352° |
| 2026-05-07 12:14 | 37.78705 | 109.54916 | 35290 ft | 448 kts | 352° |
| 2026-05-07 12:14 | 37.84927 | 109.55214 | 35290 ft | 447 kts | 352° |
| 2026-05-07 12:15 | 37.91133 | 109.55512 | 35291 ft | 446 kts | 352° |
| 2026-05-07 12:15 | 37.97324 | 109.55813 | 35286 ft | 445 kts | 352° |
| 2026-05-07 12:16 | 38.03456 | 109.56119 | 35288 ft | 443 kts | 351° |
| 2026-05-07 12:16 | 38.09614 | 109.56424 | 35285 ft | 442 kts | 351° |
| 2026-05-07 12:17 | 38.15762 | 109.56724 | 35284 ft | 442 kts | 351° |
| 2026-05-07 12:17 | 38.21897 | 109.57023 | 35286 ft | 441 kts | 351° |
| 2026-05-07 12:18 | 38.28017 | 109.57321 | 35278 ft | 440 kts | 351° |
| 2026-05-07 12:18 | 38.34130 | 109.57622 | 35284 ft | 439 kts | 351° |
| 2026-05-07 12:19 | 38.40261 | 109.58333 | 35283 ft | 453 kts | 360° |
| 2026-05-07 12:19 | 38.46440 | 109.59926 | 35284 ft | 453 kts | 359° |
| 2026-05-07 12:20 | 38.52608 | 109.61527 | 35280 ft | 452 kts | 359° |
| 2026-05-07 12:20 | 38.58772 | 109.63117 | 35285 ft | 451 kts | 359° |
| 2026-05-07 12:21 | 38.64924 | 109.64701 | 35287 ft | 450 kts | 359° |
| 2026-05-07 12:21 | 38.71056 | 109.66289 | 35296 ft | 449 kts | 359° |
| 2026-05-07 12:22 | 38.77171 | 109.67868 | 35289 ft | 447 kts | 359° |
| 2026-05-07 12:22 | 38.83273 | 109.69398 | 35292 ft | 446 kts | 358° |
| 2026-05-07 12:23 | 38.89351 | 109.70904 | 35289 ft | 444 kts | 358° |
| 2026-05-07 12:23 | 38.95412 | 109.72414 | 35288 ft | 443 kts | 358° |
| 2026-05-07 12:24 | 39.01462 | 109.73939 | 35288 ft | 442 kts | 359° |
| 2026-05-07 12:24 | 39.07453 | 109.75449 | 35289 ft | 441 kts | 358° |
| 2026-05-07 12:25 | 39.13517 | 109.76995 | 35288 ft | 441 kts | 359° |
| 2026-05-07 12:25 | 39.19529 | 109.78547 | 35288 ft | 440 kts | 359° |
| 2026-05-07 12:26 | 39.25491 | 109.80084 | 35286 ft | 440 kts | 359° |
| 2026-05-07 12:26 | 39.31482 | 109.81629 | 35284 ft | 439 kts | 359° |
| 2026-05-07 12:27 | 39.37470 | 109.83170 | 35282 ft | 438 kts | 359° |
| 2026-05-07 12:27 | 39.43444 | 109.84713 | 35283 ft | 438 kts | 359° |
| 2026-05-07 12:28 | 39.49415 | 109.86244 | 35281 ft | 436 kts | 358° |
| 2026-05-07 12:28 | 39.55370 | 109.87316 | 35276 ft | 429 kts | 354° |
| 2026-05-07 12:29 | 39.61297 | 109.88032 | 35275 ft | 427 kts | 354° |
| 2026-05-07 12:29 | 39.67222 | 109.88770 | 35277 ft | 428 kts | 355° |
| 2026-05-07 12:30 | 39.73149 | 109.89618 | 35269 ft | 429 kts | 356° |
| 2026-05-07 12:30 | 39.79086 | 109.90518 | 35262 ft | 430 kts | 356° |
| 2026-05-07 12:31 | 39.85030 | 109.91402 | 35261 ft | 430 kts | 356° |
| 2026-05-07 12:31 | 39.90972 | 109.92259 | 35256 ft | 430 kts | 356° |
| 2026-05-07 12:32 | 39.96918 | 109.93124 | 35261 ft | 430 kts | 357° |
| 2026-05-07 12:32 | 40.02862 | 109.94003 | 35263 ft | 430 kts | 357° |
| 2026-05-07 12:33 | 40.11783 | 109.95323 | 35262 ft | 430 kts | 358° |
| 2026-05-07 12:33 | 40.17717 | 109.96538 | 35259 ft | 441 kts | 8° |
| 2026-05-07 12:34 | 40.20603 | 109.98040 | 35256 ft | 453 kts | 19° |
| 2026-05-07 12:34 | 40.23296 | 110.00295 | 35256 ft | 467 kts | 30° |
| 2026-05-07 12:34 | 40.28276 | 110.05810 | 35258 ft | 469 kts | 32° |
| 2026-05-07 12:35 | 40.33259 | 110.11329 | 35263 ft | 469 kts | 31° |
| 2026-05-07 12:35 | 40.38234 | 110.16839 | 35265 ft | 468 kts | 32° |
| 2026-05-07 12:36 | 40.43204 | 110.22358 | 35274 ft | 467 kts | 32° |
| 2026-05-07 12:36 | 40.48161 | 110.27882 | 35271 ft | 467 kts | 32° |
| 2026-05-07 12:37 | 40.53073 | 110.33372 | 35284 ft | 467 kts | 32° |
| 2026-05-07 12:37 | 40.58013 | 110.38900 | 35272 ft | 466 kts | 32° |
| 2026-05-07 12:38 | 40.60310 | 110.41977 | 35268 ft | 478 kts | 44° |
| 2026-05-07 12:38 | 40.62170 | 110.45661 | 35271 ft | 490 kts | 55° |
| 2026-05-07 12:38 | 40.63495 | 110.49835 | 35270 ft | 500 kts | 67° |
| 2026-05-07 12:38 | 40.64202 | 110.54361 | 35268 ft | 509 kts | 79° |
| 2026-05-07 12:39 | 40.64238 | 110.63751 | 35260 ft | 514 kts | 86° |
| 2026-05-07 12:39 | 40.64145 | 110.73165 | 35260 ft | 515 kts | 86° |
| 2026-05-07 12:40 | 40.64044 | 110.82589 | 35248 ft | 515 kts | 86° |
| 2026-05-07 12:40 | 40.63941 | 110.92029 | 35257 ft | 516 kts | 86° |
| 2026-05-07 12:41 | 40.63829 | 111.01460 | 35266 ft | 516 kts | 86° |
| 2026-05-07 12:41 | 40.63701 | 111.10898 | 35266 ft | 516 kts | 86° |
| 2026-05-07 12:42 | 40.63569 | 111.20338 | 35269 ft | 515 kts | 86° |
| 2026-05-07 12:42 | 40.63443 | 111.29772 | 35276 ft | 515 kts | 86° |
| 2026-05-07 12:43 | 40.63304 | 111.39202 | 35278 ft | 515 kts | 86° |
| 2026-05-07 12:43 | 40.63148 | 111.48634 | 35282 ft | 515 kts | 86° |
| 2026-05-07 12:44 | 40.62983 | 111.58070 | 35292 ft | 516 kts | 87° |
| 2026-05-07 12:44 | 40.62816 | 111.67511 | 35298 ft | 516 kts | 87° |
| 2026-05-07 12:45 | 40.62676 | 111.75354 | 35302 ft | 516 kts | 87° |
| 2026-05-07 12:45 | 40.62467 | 111.86384 | 35305 ft | 516 kts | 87° |
| 2026-05-07 12:46 | 40.62315 | 111.94229 | 35303 ft | 516 kts | 87° |
| 2026-05-07 12:46 | 40.62124 | 112.03663 | 35305 ft | 516 kts | 87° |
| 2026-05-07 12:47 | 40.61870 | 112.14690 | 35300 ft | 515 kts | 87° |
| 2026-05-07 12:47 | 40.61691 | 112.22520 | 35298 ft | 515 kts | 87° |
| 2026-05-07 12:48 | 40.61471 | 112.31937 | 35296 ft | 515 kts | 87° |
| 2026-05-07 12:48 | 40.61241 | 112.41354 | 35292 ft | 515 kts | 87° |
| 2026-05-07 12:49 | 40.60989 | 112.50765 | 35281 ft | 515 kts | 88° |
| 2026-05-07 12:49 | 40.60533 | 112.60195 | 35283 ft | 517 kts | 90° |
| 2026-05-07 12:50 | 40.59923 | 112.69641 | 35281 ft | 518 kts | 91° |
| 2026-05-07 12:50 | 40.59243 | 112.79093 | 35280 ft | 519 kts | 92° |
| 2026-05-07 12:51 | 40.58477 | 112.88482 | 35277 ft | 520 kts | 91° |
| 2026-05-07 12:51 | 40.57823 | 112.98004 | 35274 ft | 519 kts | 90° |
| 2026-05-07 12:52 | 40.57237 | 113.07405 | 35272 ft | 519 kts | 90° |
| 2026-05-07 12:52 | 40.56625 | 113.16873 | 35272 ft | 520 kts | 91° |
| 2026-05-07 12:53 | 40.55970 | 113.26345 | 35275 ft | 520 kts | 91° |
| 2026-05-07 12:53 | 40.55298 | 113.35819 | 35276 ft | 521 kts | 91° |
| 2026-05-07 12:54 | 40.54630 | 113.45301 | 35277 ft | 521 kts | 91° |
| 2026-05-07 12:54 | 40.53959 | 113.54794 | 35279 ft | 521 kts | 91° |
| 2026-05-07 12:55 | 40.53278 | 113.64285 | 35279 ft | 522 kts | 91° |
| 2026-05-07 12:55 | 40.52585 | 113.73776 | 35280 ft | 522 kts | 91° |
| 2026-05-07 12:56 | 40.51880 | 113.83285 | 35279 ft | 523 kts | 91° |
| 2026-05-07 12:56 | 40.51173 | 113.92793 | 35082 ft | 525 kts | 91° |
| 2026-05-07 12:57 | 40.50816 | 113.97554 | 34657 ft | 523 kts | 91° |
| 2026-05-07 12:57 | 40.50477 | 114.02309 | 34209 ft | 521 kts | 90° |
| 2026-05-07 12:57 | 40.50223 | 114.07044 | 33667 ft | 518 kts | 88° |
| 2026-05-07 12:57 | 40.50036 | 114.11759 | 33139 ft | 516 kts | 87° |
| 2026-05-07 12:58 | 40.49883 | 114.16463 | 32618 ft | 514 kts | 86° |
| 2026-05-07 12:58 | 40.49735 | 114.21152 | 32109 ft | 513 kts | 86° |
| 2026-05-07 12:58 | 40.49570 | 114.25821 | 31607 ft | 512 kts | 86° |
| 2026-05-07 12:58 | 40.49384 | 114.30489 | 31112 ft | 510 kts | 86° |
| 2026-05-07 12:59 | 40.49179 | 114.35131 | 30628 ft | 509 kts | 86° |
| 2026-05-07 12:59 | 40.48963 | 114.39769 | 30139 ft | 507 kts | 86° |
| 2026-05-07 12:59 | 40.48743 | 114.44387 | 29565 ft | 506 kts | 86° |
| 2026-05-07 12:59 | 40.48526 | 114.48999 | 29009 ft | 506 kts | 86° |
| 2026-05-07 13:00 | 40.48313 | 114.53612 | 28465 ft | 507 kts | 86° |
| 2026-05-07 13:00 | 40.48101 | 114.58239 | 27925 ft | 507 kts | 86° |
| 2026-05-07 13:00 | 40.47889 | 114.62864 | 27398 ft | 508 kts | 86° |
| 2026-05-07 13:00 | 40.47672 | 114.67497 | 26881 ft | 508 kts | 87° |
| 2026-05-07 13:01 | 40.47455 | 114.72133 | 26357 ft | 509 kts | 87° |
| 2026-05-07 13:01 | 40.47238 | 114.76776 | 25872 ft | 509 kts | 87° |
| 2026-05-07 13:01 | 40.47017 | 114.81415 | 25382 ft | 509 kts | 87° |
| 2026-05-07 13:01 | 40.46792 | 114.86058 | 24899 ft | 510 kts | 87° |
| 2026-05-07 13:02 | 40.46564 | 114.90702 | 24423 ft | 510 kts | 88° |
| 2026-05-07 13:02 | 40.46334 | 114.95324 | 23958 ft | 506 kts | 88° |
| 2026-05-07 13:02 | 40.46101 | 114.99923 | 23449 ft | 502 kts | 88° |
| 2026-05-07 13:02 | 40.45868 | 115.04476 | 22903 ft | 497 kts | 88° |
| 2026-05-07 13:03 | 40.45638 | 115.08977 | 22362 ft | 491 kts | 88° |
| 2026-05-07 13:03 | 40.45412 | 115.13431 | 21831 ft | 486 kts | 89° |
| 2026-05-07 13:03 | 40.45190 | 115.17827 | 21288 ft | 480 kts | 89° |
| 2026-05-07 13:03 | 40.44965 | 115.22174 | 20644 ft | 474 kts | 89° |
| 2026-05-07 13:04 | 40.44740 | 115.26468 | 20018 ft | 468 kts | 89° |
| 2026-05-07 13:04 | 40.44516 | 115.30706 | 19406 ft | 463 kts | 90° |
| 2026-05-07 13:04 | 40.44295 | 115.34895 | 18805 ft | 457 kts | 90° |
| 2026-05-07 13:04 | 40.44078 | 115.39030 | 18186 ft | 452 kts | 90° |
| 2026-05-07 13:05 | 40.43862 | 115.43119 | 17510 ft | 447 kts | 90° |
| 2026-05-07 13:05 | 40.43644 | 115.47163 | 16847 ft | 442 kts | 90° |
| 2026-05-07 13:05 | 40.43425 | 115.51171 | 16207 ft | 438 kts | 90° |
| 2026-05-07 13:05 | 40.43234 | 115.55145 | 15908 ft | 435 kts | 89° |
| 2026-05-07 13:06 | 40.43145 | 115.59100 | 15848 ft | 433 kts | 87° |
| 2026-05-07 13:06 | 40.43132 | 115.63052 | 15863 ft | 434 kts | 86° |
| 2026-05-07 13:06 | 40.43151 | 115.66962 | 15860 ft | 433 kts | 86° |
| 2026-05-07 13:06 | 40.43170 | 115.70962 | 15862 ft | 434 kts | 85° |
| 2026-05-07 13:07 | 40.43171 | 115.74923 | 15861 ft | 434 kts | 86° |
| 2026-05-07 13:07 | 40.43149 | 115.78887 | 15859 ft | 434 kts | 87° |
| 2026-05-07 13:07 | 40.43110 | 115.82847 | 15856 ft | 434 kts | 87° |
| 2026-05-07 13:07 | 40.43061 | 115.86818 | 15768 ft | 435 kts | 87° |
| 2026-05-07 13:08 | 40.43008 | 115.90774 | 15434 ft | 432 kts | 87° |
| 2026-05-07 13:08 | 40.42955 | 115.94684 | 15043 ft | 424 kts | 87° |
| 2026-05-07 13:08 | 40.42910 | 115.98566 | 14625 ft | 426 kts | 87° |
| 2026-05-07 13:08 | 40.42871 | 116.02447 | 14212 ft | 424 kts | 87° |
| 2026-05-07 13:09 | 40.42835 | 116.06308 | 13947 ft | 423 kts | 87° |
| 2026-05-07 13:09 | 40.42791 | 116.10167 | 13933 ft | 423 kts | 87° |
| 2026-05-07 13:09 | 40.42746 | 116.14025 | 13938 ft | 423 kts | 87° |
| 2026-05-07 13:09 | 40.42700 | 116.17877 | 13938 ft | 422 kts | 87° |
| 2026-05-07 13:10 | 40.42652 | 116.21737 | 13934 ft | 423 kts | 88° |
| 2026-05-07 13:10 | 40.42603 | 116.25590 | 13929 ft | 423 kts | 88° |
| 2026-05-07 13:10 | 40.42551 | 116.29450 | 13927 ft | 422 kts | 88° |
| 2026-05-07 13:10 | 40.42496 | 116.33310 | 13931 ft | 423 kts | 88° |
| 2026-05-07 13:11 | 40.42439 | 116.37171 | 13841 ft | 424 kts | 88° |
| 2026-05-07 13:11 | 40.42381 | 116.41019 | 13418 ft | 418 kts | 88° |
| 2026-05-07 13:11 | 40.42322 | 116.44781 | 12935 ft | 404 kts | 88° |
| 2026-05-07 13:11 | 40.42263 | 116.48364 | 12465 ft | 382 kts | 88° |
| 2026-05-07 13:12 | 40.42206 | 116.51769 | 12000 ft | 364 kts | 88° |
| 2026-05-07 13:12 | 40.41914 | 116.55001 | 11542 ft | 351 kts | 99° |
| 2026-05-07 13:12 | 40.41231 | 116.58021 | 11148 ft | 339 kts | 109° |
| 2026-05-07 13:12 | 40.40213 | 116.60752 | 10768 ft | 328 kts | 119° |
| 2026-05-07 13:13 | 40.38936 | 116.63133 | 10383 ft | 319 kts | 128° |
| 2026-05-07 13:13 | 40.37426 | 116.65195 | 10036 ft | 309 kts | 137° |
| 2026-05-07 13:13 | 40.35749 | 116.66893 | 9643 ft | 301 kts | 146° |
| 2026-05-07 13:13 | 40.33948 | 116.68216 | 9240 ft | 294 kts | 155° |
| 2026-05-07 13:14 | 40.32055 | 116.69170 | 8843 ft | 290 kts | 164° |
| 2026-05-07 13:14 | 40.30100 | 116.69759 | 8466 ft | 287 kts | 172° |
| 2026-05-07 13:14 | 40.28126 | 116.70077 | 8079 ft | 283 kts | 174° |
| 2026-05-07 13:14 | 40.26194 | 116.70377 | 7698 ft | 276 kts | 174° |
| 2026-05-07 13:15 | 40.24307 | 116.70673 | 7329 ft | 271 kts | 174° |
| 2026-05-07 13:15 | 40.22445 | 116.70965 | 6974 ft | 268 kts | 174° |
| 2026-05-07 13:15 | 40.20576 | 116.71257 | 6895 ft | 266 kts | 174° |
| 2026-05-07 13:15 | 40.18757 | 116.71542 | 6906 ft | 267 kts | 174° |
| 2026-05-07 13:16 | 40.16911 | 116.71830 | 6905 ft | 268 kts | 174° |
| 2026-05-07 13:16 | 40.15059 | 116.72115 | 6907 ft | 268 kts | 174° |
| 2026-05-07 13:16 | 40.13210 | 116.72399 | 6909 ft | 268 kts | 174° |
| 2026-05-07 13:16 | 40.11359 | 116.72686 | 6908 ft | 268 kts | 174° |
| 2026-05-07 13:17 | 40.09484 | 116.72975 | 6909 ft | 268 kts | 174° |
| 2026-05-07 13:17 | 40.07633 | 116.73259 | 6910 ft | 268 kts | 174° |
| 2026-05-07 13:17 | 40.05776 | 116.73544 | 6762 ft | 268 kts | 174° |
| 2026-05-07 13:17 | 40.03934 | 116.73826 | 6497 ft | 265 kts | 174° |
| 2026-05-07 13:18 | 40.02139 | 116.74102 | 6265 ft | 262 kts | 174° |
| 2026-05-07 13:18 | 40.00341 | 116.74379 | 6002 ft | 259 kts | 174° |
| 2026-05-07 13:18 | 39.98556 | 116.74655 | 5747 ft | 257 kts | 174° |
| 2026-05-07 13:18 | 39.96795 | 116.74930 | 5494 ft | 253 kts | 174° |
| 2026-05-07 13:19 | 39.95053 | 116.75199 | 5242 ft | 251 kts | 174° |
| 2026-05-07 13:19 | 39.93318 | 116.75465 | 5003 ft | 250 kts | 174° |
| 2026-05-07 13:19 | 39.91594 | 116.75729 | 4799 ft | 250 kts | 174° |
| 2026-05-07 13:19 | 39.89872 | 116.75992 | 4538 ft | 248 kts | 174° |
| 2026-05-07 13:20 | 39.88160 | 116.76256 | 4287 ft | 247 kts | 174° |
| 2026-05-07 13:20 | 39.86459 | 116.76521 | 4035 ft | 246 kts | 174° |
| 2026-05-07 13:20 | 39.84768 | 116.76783 | 3782 ft | 244 kts | 174° |
| 2026-05-07 13:20 | 39.83088 | 116.77041 | 3536 ft | 242 kts | 174° |
| 2026-05-07 13:21 | 39.81420 | 116.77295 | 3295 ft | 241 kts | 174° |
| 2026-05-07 13:21 | 39.79765 | 116.77546 | 3089 ft | 238 kts | 175° |
| 2026-05-07 13:21 | 39.78126 | 116.77793 | 2991 ft | 237 kts | 175° |
| 2026-05-07 13:21 | 39.76490 | 116.78041 | 2993 ft | 237 kts | 174° |
| 2026-05-07 13:22 | 39.74858 | 116.78290 | 2999 ft | 236 kts | 174° |
| 2026-05-07 13:22 | 39.73224 | 116.78542 | 3000 ft | 236 kts | 175° |
| 2026-05-07 13:22 | 39.71598 | 116.78552 | 2999 ft | 234 kts | 192° |
| 2026-05-07 13:22 | 39.70096 | 116.77805 | 3003 ft | 231 kts | 214° |
| 2026-05-07 13:23 | 39.68925 | 116.76413 | 3004 ft | 228 kts | 235° |
| 2026-05-07 13:23 | 39.68226 | 116.74592 | 3007 ft | 226 kts | 256° |
| 2026-05-07 13:23 | 39.67990 | 116.72589 | 3011 ft | 225 kts | 264° |
| 2026-05-07 13:23 | 39.68006 | 116.70571 | 3006 ft | 224 kts | 284° |
| 2026-05-07 13:24 | 39.68689 | 116.68768 | 3009 ft | 224 kts | 310° |
| 2026-05-07 13:24 | 39.69929 | 116.67563 | 3011 ft | 225 kts | 336° |
| 2026-05-07 13:24 | 39.71462 | 116.67139 | 3016 ft | 227 kts | 352° |
| 2026-05-07 13:24 | 39.73029 | 116.66903 | 3014 ft | 227 kts | 352° |
| 2026-05-07 13:25 | 39.74591 | 116.66664 | 3008 ft | 226 kts | 352° |
| 2026-05-07 13:25 | 39.76150 | 116.66422 | 3002 ft | 226 kts | 352° |
| 2026-05-07 13:25 | 39.77711 | 116.66178 | 3004 ft | 226 kts | 352° |
| 2026-05-07 13:25 | 39.79267 | 116.65936 | 3005 ft | 225 kts | 352° |
| 2026-05-07 13:26 | 39.80822 | 116.65693 | 3003 ft | 225 kts | 352° |
| 2026-05-07 13:26 | 39.82337 | 116.65457 | 2998 ft | 212 kts | 352° |
| 2026-05-07 13:26 | 39.83756 | 116.65235 | 2998 ft | 198 kts | 352° |
| 2026-05-07 13:26 | 39.85069 | 116.65031 | 2996 ft | 182 kts | 352° |
| 2026-05-07 13:27 | 39.86262 | 116.64844 | 2993 ft | 163 kts | 352° |
| 2026-05-07 13:27 | 39.87332 | 116.64677 | 2996 ft | 149 kts | 352° |
| 2026-05-07 13:27 | 39.88339 | 116.64519 | 2998 ft | 143 kts | 352° |
| 2026-05-07 13:27 | 39.89298 | 116.64369 | 3005 ft | 135 kts | 352° |
| 2026-05-07 13:28 | 39.90218 | 116.64224 | 3000 ft | 132 kts | 352° |
| 2026-05-07 13:28 | 39.91125 | 116.64082 | 2918 ft | 131 kts | 352° |
| 2026-05-07 13:28 | 39.92031 | 116.63940 | 2782 ft | 131 kts | 352° |
| 2026-05-07 13:28 | 39.92934 | 116.63799 | 2628 ft | 131 kts | 352° |
| 2026-05-07 13:29 | 39.93836 | 116.63658 | 2467 ft | 131 kts | 352° |
| 2026-05-07 13:29 | 39.94740 | 116.63516 | 2302 ft | 131 kts | 352° |
| 2026-05-07 13:29 | 39.95648 | 116.63374 | 2122 ft | 131 kts | 352° |
| 2026-05-07 13:29 | 39.96553 | 116.63232 | 1950 ft | 131 kts | 352° |
| 2026-05-07 13:30 | 39.97460 | 116.63090 | 1773 ft | 131 kts | 352° |
| 2026-05-07 13:30 | 39.98368 | 116.62947 | 1597 ft | 131 kts | 352° |
| 2026-05-07 13:30 | 39.98970 | 116.62853 | 1476 ft | 132 kts | 352° |
| 2026-05-07 13:30 | 40.00190 | 116.62661 | 1255 ft | 132 kts | 352° |
| 2026-05-07 13:31 | 40.01106 | 116.62518 | 1069 ft | 132 kts | 352° |
| 2026-05-07 13:31 | 40.01712 | 116.62422 | 952 ft | 133 kts | 352° |
| 2026-05-07 13:31 | 40.02628 | 116.62286 | 773 ft | 133 kts | 352° |
| 2026-05-07 13:31 | 40.03541 | 116.62142 | 591 ft | 132 kts | 352° |
| 2026-05-07 13:32 | 40.04742 | 116.61953 | 383 ft | 131 kts | 352° |
| 2026-05-07 13:32 | 40.05348 | 116.61858 | 278 ft | 130 kts | 351° |
| 2026-05-07 13:32 | 40.06242 | 116.61711 | 138 ft | 129 kts | 351° |
| 2026-05-07 13:32 | 40.06991 | 116.61594 | 119 ft | 85 kts | 353° |
| 2026-05-07 13:33 | 40.07409 | 116.61527 | 121 ft | 43 kts | 354° |
| 2026-05-07 13:33 | 40.07661 | 116.61491 | 121 ft | 33 kts | 353° |
| 2026-05-07 13:33 | 40.07855 | 116.61404 | 122 ft | 26 kts | 329° |
| 2026-05-07 13:33 | 40.07951 | 116.61315 | 122 ft | 9 kts | 323° |
| 2026-05-07 13:34 | 40.07968 | 116.61247 | 124 ft | 6 kts | 255° |
| 2026-05-07 13:34 | 40.07960 | 116.61191 | 123 ft | 6 kts | 261° |
| 2026-05-07 13:34 | 40.07951 | 116.61120 | 124 ft | 9 kts | 250° |
| 2026-05-07 13:35 | 40.07899 | 116.61098 | 123 ft | 5 kts | 171° |
| 2026-05-07 13:35 | 40.07857 | 116.61106 | 122 ft | 7 kts | 173° |
| 2026-05-07 13:35 | 40.07799 | 116.61115 | 124 ft | 10 kts | 173° |
| 2026-05-07 13:35 | 40.07730 | 116.61102 | 122 ft | 11 kts | 235° |
| 2026-05-07 13:36 | 40.07688 | 116.61013 | 124 ft | 12 kts | 231° |
| 2026-05-07 13:36 | 40.07635 | 116.60918 | 123 ft | 13 kts | 261° |
| 2026-05-07 13:36 | 40.07658 | 116.60853 | 124 ft | 5 kts | 303° |
| 2026-05-07 13:36 | 40.07668 | 116.60834 | 122 ft | 1 kts | 303° |
| 2026-05-07 13:37 | 40.07668 | 116.60833 | 122 ft | 0 kts | 303° |